Cromer, United Kingdom
Current Conditions -  °F | °C
As of 1:50 PM on Wednesday 26 Nov 2014 (Local Time) from EGSH Reporting Station
Haze Haze  
Wind Chill: 46°   Ceiling: 700
Heat Index: 48°   Visibility: 1.3mi
Dew Point: 48°   Wind: 5mph
Humidity: 100%   Direction: 90°E
Pressure: 29.85"   Gusts: NA
Location:  52.93°N, 1.3°E
Report Text: EGSH 261350Z 09004KT 2100 BR SCT003 BKN007 09/09 Q1011
Loading
Personal Weather Stations






























Interactive Weather Map New forecast layout! Learn more

10-Day Weather Forecast

Advertisements
Track Severe Weather on mobile